KFNT

Bishop International Airport

Flint, Michigan, USA
METAR KFNT 170153Z 09008KT 10SM FEW027 OVC034 M04/M07 A3015 RMK AO2 SLP223 T10391067
Observed Flight Rules
Dec-17 @ 01:53 UTC (34 minutes ago) Visual Flight Rules
Wind Visibility Clouds
90° at 8 knots 10 miles
  • Few at 2,700' AGL
  • Overcast at 3,400' AGL
Temperatures Readings
Current -4°C / 25°F
Dewpoint -7°C / 19°F
Humidity 80%
Altimeter 30.15" Hg
Pressure 1022.3 hPa
Elevation 233
METAR KFNT 170153Z 09008KT 10SM FEW027 OVC034 M04/M07 A3015 RMK AO2 SLP223 T10391067
Observed Flight Rules
Dec-17 @ 01:53 UTC
(34 minutes ago)
VFR
Wind Visibility
90° at 8 knots 10 miles
Clouds
  • Few at 2,700' AGL
  • Overcast at 3,400' AGL
Temperature Dewpoint
-4°C / 25°F -7°C / 19°F
Humidity Altimeter Pressure
80% 30.15" Hg 1022.3 hPa